Time;durP1;ratioP1;P1;durP2;ratioP2;P2;SDS_P1;SDS_P2;PMS_P1;PMS_P2;Temp;Humidity;BMP_temperature;BMP_pressure;BME280_temperature;BME280_humidity;BME280_pressure;Samples;Min_cycle;Max_cycle;Signal;HPM_P1;HPM_P2
2022/03/15 00:00:01;;;;;;;367.60;100.90;;;;;;;3.10;62.16;101636.44;342575;28;1297;-68
2022/03/15 00:00:12;;;;;;;366.77;100.93;;;;;;;3.10;62.34;101632.16;342287;28;1436;-68
2022/03/15 00:00:23;;;;;;;365.50;99.25;;;;;;;3.08;62.10;101635.53;341807;28;1721;-68
2022/03/15 00:00:34;;;;;;;367.20;100.68;;;;;;;3.07;62.05;101633.78;339906;29;956;-69
2022/03/15 00:00:44;;;;;;;365.35;101.03;;;;;;;3.09;61.77;101633.00;339787;29;1200;-68
2022/03/15 00:00:55;;;;;;;366.50;101.28;;;;;;;3.09;62.51;101629.53;340293;28;1914;-68
2022/03/15 00:01:05;;;;;;;365.37;100.50;;;;;;;3.09;61.51;101632.13;339345;28;1372;-68
2022/03/15 00:01:16;;;;;;;366.52;100.28;;;;;;;3.07;62.26;101629.50;341316;28;1238;-68
2022/03/15 00:01:27;;;;;;;369.15;99.47;;;;;;;3.08;61.38;101630.38;341432;28;849;-68
2022/03/15 00:01:37;;;;;;;372.10;101.37;;;;;;;3.07;61.98;101628.63;344023;28;1420;-68
2022/03/15 00:01:47;;;;;;;373.73;104.47;;;;;;;3.07;61.77;101629.50;343612;28;1898;-68
2022/03/15 00:01:58;;;;;;;371.13;105.63;;;;;;;3.10;62.00;101634.75;339912;28;1382;-68
2022/03/15 00:02:08;;;;;;;371.03;105.60;;;;;;;3.10;61.25;101633.88;340037;29;865;-68
2022/03/15 00:02:19;;;;;;;370.70;103.20;;;;;;;3.10;61.79;101633.88;342496;28;1425;-68
2022/03/15 00:02:29;;;;;;;370.30;102.57;;;;;;;3.10;61.50;101639.03;342649;28;1188;-68
2022/03/15 00:02:39;;;;;;;369.88;104.55;;;;;;;3.11;61.46;101635.63;340036;29;1217;-68
2022/03/15 00:02:50;;;;;;;371.03;105.17;;;;;;;3.12;61.79;101637.34;344824;28;2088;-68
2022/03/15 00:03:00;;;;;;;374.48;106.30;;;;;;;3.12;61.58;101633.06;342677;28;850;-68
2022/03/15 00:03:11;;;;;;;373.60;102.43;;;;;;;3.09;61.14;101638.16;343995;28;1022;-68
2022/03/15 00:03:22;;;;;;;375.00;100.93;;;;;;;3.08;61.55;101640.72;343898;28;1493;-68
2022/03/15 00:03:33;;;;;;;373.56;100.40;;;;;;;3.09;61.61;101634.72;340977;28;1136;-68
2022/03/15 00:03:43;;;;;;;372.93;101.30;;;;;;;3.10;62.05;101639.03;342132;28;924;-68
2022/03/15 00:03:54;;;;;;;372.48;103.65;;;;;;;3.10;61.53;101631.28;342557;28;908;-68
2022/03/15 00:04:05;;;;;;;374.50;105.53;;;;;;;3.11;61.32;101635.63;341148;28;968;-68
2022/03/15 00:04:16;;;;;;;374.52;106.60;;;;;;;3.10;61.48;101634.75;342364;28;1292;-68
2022/03/15 00:04:26;;;;;;;371.77;105.40;;;;;;;3.11;61.62;101635.63;341319;28;1379;-69
2022/03/15 00:04:37;;;;;;;372.13;105.23;;;;;;;3.12;61.57;101638.22;342210;28;1778;-68
2022/03/15 00:04:47;;;;;;;370.58;104.20;;;;;;;3.13;61.35;101636.53;339866;28;1833;-67
2022/03/15 00:04:57;;;;;;;371.60;106.33;;;;;;;3.15;61.99;101629.66;337727;29;1309;-67
2022/03/15 00:05:08;;;;;;;372.65;107.72;;;;;;;3.16;61.01;101634.00;337306;29;1758;-68
2022/03/15 00:05:18;;;;;;;372.97;107.90;;;;;;;3.15;61.61;101632.25;338496;29;945;-67
2022/03/15 00:05:29;;;;;;;371.73;105.80;;;;;;;3.13;61.65;101633.94;342491;28;1228;-67
2022/03/15 00:05:39;;;;;;;368.70;104.67;;;;;;;3.11;61.61;101631.31;341416;28;1046;-69
2022/03/15 00:05:51;;;;;;;370.23;106.00;;;;;;;3.12;61.07;101632.19;341427;28;846;-68
2022/03/15 00:06:02;;;;;;;370.73;105.43;;;;;;;3.11;61.18;101630.44;339998;29;926;-68
2022/03/15 00:06:12;;;;;;;370.90;103.70;;;;;;;3.09;61.72;101635.56;340839;28;1649;-68
2022/03/15 00:06:22;;;;;;;370.92;104.30;;;;;;;3.09;61.31;101638.16;341428;28;893;-68
2022/03/15 00:06:34;;;;;;;374.13;104.67;;;;;;;3.10;62.04;101626.09;341446;28;1181;-68
2022/03/15 00:06:45;;;;;;;373.27;103.88;;;;;;;3.10;61.16;101633.88;342650;28;1406;-68
2022/03/15 00:06:58;;;;;;;372.95;103.53;;;;;;;3.11;61.82;101630.44;342668;28;1255;-68
2022/03/15 00:07:13;;;;;;;371.30;103.95;;;;;;;3.09;62.05;101630.41;341421;28;1343;-68
2022/03/15 00:07:24;;;;;;;372.88;103.60;;;;;;;3.06;61.84;101635.50;340951;28;1297;-68
2022/03/15 00:07:35;;;;;;;376.70;104.40;;;;;;;3.06;61.47;101634.63;341317;28;874;-68
2022/03/15 00:07:46;;;;;;;375.00;105.52;;;;;;;3.06;62.34;101632.06;339964;29;926;-68
2022/03/15 00:07:56;;;;;;;370.43;102.53;;;;;;;3.06;61.39;101630.34;341973;28;1915;-68
2022/03/15 00:08:07;;;;;;;369.05;102.93;;;;;;;3.08;61.38;101633.84;342604;28;865;-68
2022/03/15 00:08:19;;;;;;;370.40;102.47;;;;;;;3.09;61.35;101637.28;342734;28;869;-68
2022/03/15 00:08:30;;;;;;;369.45;103.13;;;;;;;3.07;61.86;101629.50;341332;28;1467;-68
2022/03/15 00:08:40;;;;;;;369.60;102.70;;;;;;;3.08;61.66;101628.66;343754;28;1619;-68
2022/03/15 00:08:51;;;;;;;369.53;101.13;;;;;;;3.10;61.34;101633.88;342767;28;1696;-68
2022/03/15 00:09:01;;;;;;;369.20;100.40;;;;;;;3.10;60.95;101631.28;341386;28;1501;-68
2022/03/15 00:09:12;;;;;;;368.07;100.37;;;;;;;3.09;61.51;101632.13;339734;28;1208;-68
2022/03/15 00:09:22;;;;;;;365.73;101.53;;;;;;;3.09;61.49;101637.28;340267;28;1804;-68
2022/03/15 00:09:32;;;;;;;367.50;103.33;;;;;;;3.09;61.58;101629.53;344381;28;1200;-68
2022/03/15 00:09:43;;;;;;;370.92;103.47;;;;;;;3.11;61.83;101635.63;343484;28;979;-68
2022/03/15 00:09:53;;;;;;;372.37;102.50;;;;;;;3.09;61.90;101635.56;340756;28;676;-68
2022/03/15 00:10:04;;;;;;;371.92;103.63;;;;;;;3.11;61.15;101635.63;337830;28;1378;-68
2022/03/15 00:10:15;;;;;;;369.90;102.97;;;;;;;3.11;61.20;101635.63;341230;28;877;-68
2022/03/15 00:10:26;;;;;;;369.50;102.33;;;;;;;3.13;61.10;101633.94;339860;28;1392;-67
2022/03/15 00:10:36;;;;;;;370.30;101.32;;;;;;;3.11;61.59;101633.03;339564;29;1749;-68
2022/03/15 00:10:48;;;;;;;368.10;101.30;;;;;;;3.10;61.49;101631.28;340261;29;884;-68
2022/03/15 00:11:02;;;;;;;366.88;100.62;;;;;;;3.11;61.00;101635.63;342539;28;1331;-68
2022/03/15 00:11:13;;;;;;;364.40;99.82;;;;;;;3.12;61.47;101632.19;343852;28;1357;-68
2022/03/15 00:11:23;;;;;;;365.35;102.13;;;;;;;3.12;61.25;101633.06;343762;28;1758;-68
2022/03/15 00:11:34;;;;;;;368.13;100.60;;;;;;;3.12;61.29;101635.66;343841;28;1192;-68
2022/03/15 00:11:44;;;;;;;368.33;101.35;;;;;;;3.12;61.18;101634.78;340064;29;1297;-68
2022/03/15 00:11:55;;;;;;;366.95;99.63;;;;;;;3.12;61.34;101629.59;341393;28;970;-68
2022/03/15 00:12:09;;;;;;;365.03;99.90;;;;;;;3.12;61.20;101627.88;342309;28;1334;-68
2022/03/15 00:12:19;;;;;;;365.73;98.40;;;;;;;3.10;61.33;101639.03;342116;28;1404;-68
2022/03/15 00:12:30;;;;;;;367.73;99.17;;;;;;;3.09;61.74;101634.72;337314;29;855;-68
2022/03/15 00:12:41;;;;;;;367.13;99.47;;;;;;;3.11;61.61;101630.44;343928;28;1343;-68
2022/03/15 00:12:52;;;;;;;365.38;99.85;;;;;;;3.10;61.54;101633.88;343472;28;2085;-68
2022/03/15 00:13:02;;;;;;;366.60;100.26;;;;;;;3.11;61.64;101635.63;341248;28;1783;-68
2022/03/15 00:13:13;;;;;;;368.70;101.63;;;;;;;3.08;61.38;101630.38;342273;28;1369;-68
2022/03/15 00:13:28;;;;;;;369.27;102.53;;;;;;;3.07;61.81;101631.22;344113;28;1278;-68
2022/03/15 00:13:39;;;;;;;364.92;101.78;;;;;;;3.04;61.63;101631.13;342581;28;912;-68
2022/03/15 00:13:50;;;;;;;364.50;101.35;;;;;;;3.05;61.67;101636.34;338775;29;1190;-68
2022/03/15 00:14:02;;;;;;;363.58;100.47;;;;;;;3.05;61.34;101632.88;339891;29;873;-68
2022/03/15 00:14:14;;;;;;;364.70;101.70;;;;;;;3.04;61.66;101631.13;341272;28;2560;-68
2022/03/15 00:14:25;;;;;;;367.18;102.34;;;;;;;3.02;61.85;101625.09;342183;28;1751;-68
2022/03/15 00:14:37;;;;;;;369.03;100.90;;;;;;;2.99;62.04;101634.53;339758;29;1117;-68
2022/03/15 00:14:47;;;;;;;368.95;98.93;;;;;;;2.97;62.39;101628.44;338405;29;1436;-68
2022/03/15 00:14:58;;;;;;;365.17;97.50;;;;;;;2.95;62.32;101630.13;340387;28;1315;-68
2022/03/15 00:15:09;;;;;;;365.33;99.22;;;;;;;2.97;61.61;101623.28;341330;28;870;-68
2022/03/15 00:15:19;;;;;;;368.00;99.53;;;;;;;2.95;61.84;101631.84;337588;29;1816;-68
2022/03/15 00:15:30;;;;;;;370.77;101.43;;;;;;;2.94;62.11;101630.97;341153;28;1436;-68
2022/03/15 00:15:42;;;;;;;370.15;100.63;;;;;;;2.96;62.08;101631.00;341128;28;1312;-68
2022/03/15 00:15:52;;;;;;;367.60;99.68;;;;;;;2.96;62.40;101624.13;342698;28;1425;-68
2022/03/15 00:16:04;;;;;;;365.13;99.50;;;;;;;2.98;61.49;101632.78;341297;28;1219;-68
2022/03/15 00:16:14;;;;;;;363.35;99.82;;;;;;;2.98;61.93;101619.84;341524;28;1742;-68
2022/03/15 00:16:25;;;;;;;363.17;98.97;;;;;;;3.00;61.94;101627.66;343865;28;1047;-67
2022/03/15 00:16:35;;;;;;;365.27;99.57;;;;;;;2.99;61.82;101626.78;343856;28;1243;-67
2022/03/15 00:16:45;;;;;;;363.42;98.35;;;;;;;3.00;61.54;101620.75;344012;28;1183;-68
2022/03/15 00:16:57;;;;;;;365.50;99.90;;;;;;;3.02;61.64;101627.69;342666;28;1401;-68
2022/03/15 00:17:08;;;;;;;365.25;98.78;;;;;;;3.02;61.67;101630.25;341189;28;913;-68
2022/03/15 00:17:20;;;;;;;368.48;99.22;;;;;;;3.00;61.97;101625.94;342374;28;1083;-68
2022/03/15 00:17:32;;;;;;;365.25;99.47;;;;;;;3.02;62.28;101630.25;341177;28;878;-68
2022/03/15 00:17:43;;;;;;;363.17;98.70;;;;;;;3.03;61.82;101632.00;341253;28;929;-68
2022/03/15 00:17:53;;;;;;;365.92;100.07;;;;;;;3.02;62.09;101632.84;341342;28;1675;-68
2022/03/15 00:18:04;;;;;;;366.83;98.93;;;;;;;3.02;62.08;101625.09;342795;28;961;-68
2022/03/15 00:18:14;;;;;;;369.98;101.07;;;;;;;3.01;61.78;101631.97;338532;29;1209;-67
2022/03/15 00:18:26;;;;;;;368.47;100.77;;;;;;;2.99;61.86;101624.19;339782;29;995;-67
2022/03/15 00:18:37;;;;;;;367.40;101.53;;;;;;;2.97;62.17;101628.44;341127;28;1650;-67
2022/03/15 00:18:48;;;;;;;368.83;100.85;;;;;;;2.96;62.40;101631.00;339936;29;869;-68
2022/03/15 00:18:59;;;;;;;368.00;101.10;;;;;;;2.94;61.70;101628.38;339117;29;1716;-68
2022/03/15 00:19:09;;;;;;;367.70;99.32;;;;;;;2.96;62.36;101628.41;339665;28;1314;-68
2022/03/15 00:19:19;;;;;;;364.15;98.05;;;;;;;2.96;62.16;101621.53;340965;28;1356;-68
2022/03/15 00:19:30;;;;;;;366.47;97.47;;;;;;;2.96;62.22;101626.69;342528;28;1530;-70
2022/03/15 00:19:40;;;;;;;366.00;99.07;;;;;;;2.98;62.29;101627.59;342321;28;1460;-69
2022/03/15 00:19:51;;;;;;;365.07;98.57;;;;;;;2.98;62.03;101625.03;340528;28;1295;-69
2022/03/15 00:20:04;;;;;;;366.02;100.57;;;;;;;2.99;62.00;101621.59;340409;28;1071;-68
2022/03/15 00:20:17;;;;;;;368.25;101.47;;;;;;;3.03;61.62;101621.66;339912;28;1724;-68
2022/03/15 00:20:28;;;;;;;368.27;102.45;;;;;;;3.02;62.11;101627.69;339728;29;937;-68
2022/03/15 00:20:38;;;;;;;364.23;99.80;;;;;;;2.99;62.09;101626.78;342482;28;1304;-68
2022/03/15 00:20:49;;;;;;;366.70;101.43;;;;;;;3.00;62.33;101628.53;342285;28;1936;-68
2022/03/15 00:21:02;;;;;;;367.50;101.80;;;;;;;2.98;62.18;101625.03;341403;28;1942;-68
2022/03/15 00:21:12;;;;;;;367.52;103.28;;;;;;;2.96;62.23;101625.81;342684;28;1554;-69
2022/03/15 00:21:23;;;;;;;363.08;100.50;;;;;;;2.94;61.93;101623.22;342681;28;841;-69
2022/03/15 00:21:33;;;;;;;365.20;100.70;;;;;;;2.94;61.84;101632.69;338604;29;1236;-69
2022/03/15 00:21:44;;;;;;;369.73;102.73;;;;;;;2.94;62.25;101633.56;339893;29;890;-69
2022/03/15 00:21:54;;;;;;;371.05;102.55;;;;;;;2.93;61.84;101629.22;338724;29;866;-69
2022/03/15 00:22:06;;;;;;;366.90;100.13;;;;;;;2.93;62.55;101626.63;338767;29;851;-69
2022/03/15 00:22:17;;;;;;;366.30;99.82;;;;;;;2.97;61.99;101627.56;338561;29;1123;-69
2022/03/15 00:22:27;;;;;;;366.88;100.47;;;;;;;2.94;62.21;101628.38;340240;28;2201;-69
2022/03/15 00:22:38;;;;;;;365.80;98.73;;;;;;;2.93;61.87;101626.63;342128;28;2093;-69
2022/03/15 00:22:49;;;;;;;364.25;96.80;;;;;;;2.89;62.16;101619.63;342767;28;814;-69
2022/03/15 00:23:00;;;;;;;363.88;97.63;;;;;;;2.87;61.96;101623.91;344978;28;1611;-69
2022/03/15 00:23:10;;;;;;;365.75;99.80;;;;;;;2.85;62.69;101628.16;345162;28;924;-69
2022/03/15 00:23:21;;;;;;;367.05;100.75;;;;;;;2.86;63.15;101629.91;339694;28;1389;-69
2022/03/15 00:23:31;;;;;;;366.73;100.70;;;;;;;2.86;62.74;101629.03;341426;28;793;-69
2022/03/15 00:23:42;;;;;;;363.92;98.00;;;;;;;2.84;62.26;101626.41;342386;28;2293;-68
2022/03/15 00:23:53;;;;;;;363.02;96.20;;;;;;;2.85;62.87;101628.16;342473;28;1726;-68
2022/03/15 00:24:05;;;;;;;363.88;96.53;;;;;;;2.84;62.91;101626.41;342993;28;1503;-68
2022/03/15 00:24:15;;;;;;;364.35;98.22;;;;;;;2.84;62.76;101621.25;341223;28;1383;-68
2022/03/15 00:24:26;;;;;;;364.43;99.60;;;;;;;2.86;62.98;101629.91;338544;29;3050;-68
2022/03/15 00:24:37;;;;;;;362.63;99.47;;;;;;;2.86;63.04;101624.75;338638;29;1074;-69
2022/03/15 00:24:48;;;;;;;361.48;98.64;;;;;;;2.86;63.07;101627.31;339594;28;1398;-69
2022/03/15 00:24:59;;;;;;;362.50;100.03;;;;;;;2.85;62.52;101625.56;339226;28;885;-69
2022/03/15 00:25:10;;;;;;;364.85;101.80;;;;;;;2.81;62.70;101621.16;339385;28;933;-69
2022/03/15 00:25:20;;;;;;;366.23;101.65;;;;;;;2.82;62.91;101627.22;342629;28;952;-69
2022/03/15 00:25:31;;;;;;;366.73;99.60;;;;;;;2.82;63.13;101627.22;339927;29;897;-69
2022/03/15 00:25:42;;;;;;;364.80;99.73;;;;;;;2.82;62.47;101622.03;339510;28;2000;-69
2022/03/15 00:25:52;;;;;;;364.73;100.90;;;;;;;2.81;62.91;101618.59;339989;28;1728;-69
2022/03/15 00:26:03;;;;;;;368.70;103.13;;;;;;;2.84;62.88;101625.53;341263;28;829;-69
2022/03/15 00:26:13;;;;;;;372.83;101.88;;;;;;;2.82;62.75;101619.47;341073;28;1899;-69
2022/03/15 00:26:24;;;;;;;373.80;101.43;;;;;;;2.83;63.28;101626.38;342494;28;921;-69
2022/03/15 00:26:35;;;;;;;370.38;101.95;;;;;;;2.83;62.79;101622.09;342647;28;834;-69
2022/03/15 00:26:46;;;;;;;368.02;103.50;;;;;;;2.83;62.66;101619.50;342510;28;919;-69
2022/03/15 00:26:57;;;;;;;368.17;102.18;;;;;;;2.83;63.04;101623.78;339883;28;1429;-69
2022/03/15 00:27:08;;;;;;;369.30;102.60;;;;;;;2.82;62.84;101617.75;342293;28;1356;-69
2022/03/15 00:27:20;;;;;;;369.75;101.68;;;;;;;2.83;62.59;101628.97;341162;28;1060;-69
2022/03/15 00:27:32;;;;;;;368.95;101.72;;;;;;;2.83;62.92;101614.31;342636;28;1529;-69
2022/03/15 00:27:46;;;;;;;365.08;101.10;;;;;;;2.82;62.93;101620.34;339579;28;1287;-70
2022/03/15 00:27:57;;;;;;;363.23;100.38;;;;;;;2.84;63.25;101620.38;341494;28;1714;-67
2022/03/15 00:28:07;;;;;;;365.85;101.00;;;;;;;2.82;63.00;101620.34;341204;28;791;-67
2022/03/15 00:28:19;;;;;;;368.93;101.83;;;;;;;2.83;63.39;101624.66;340506;28;1974;-66
2022/03/15 00:28:30;;;;;;;370.42;102.38;;;;;;;2.81;62.88;101621.16;341299;28;1402;-66
2022/03/15 00:28:41;;;;;;;369.75;101.10;;;;;;;2.82;63.49;101620.34;338774;28;1690;-66
2022/03/15 00:28:52;;;;;;;371.13;102.90;;;;;;;2.78;63.02;101621.09;340924;28;2066;-66
2022/03/15 00:29:02;;;;;;;369.10;104.32;;;;;;;2.79;63.03;101622.84;341476;28;1296;-66
2022/03/15 00:29:15;;;;;;;370.70;104.13;;;;;;;2.79;63.04;101622.84;340602;28;1328;-66
2022/03/15 00:29:25;;;;;;;368.52;99.45;;;;;;;2.77;63.44;101619.34;338553;28;1298;-66
2022/03/15 00:29:36;;;;;;;369.70;100.13;;;;;;;2.78;63.61;101615.94;341309;28;1390;-66
2022/03/15 00:29:47;;;;;;;371.48;101.22;;;;;;;2.80;63.21;101622.00;340966;28;1387;-67
2022/03/15 00:29:58;;;;;;;372.15;103.32;;;;;;;2.81;63.39;101620.31;339209;28;810;-67
2022/03/15 00:30:09;;;;;;;370.27;102.20;;;;;;;2.83;63.10;101619.50;337149;28;1173;-67
2022/03/15 00:30:20;;;;;;;368.67;104.10;;;;;;;2.83;63.15;101616.91;342641;28;1438;-67
2022/03/15 00:30:31;;;;;;;367.40;103.35;;;;;;;2.83;63.05;101619.50;341359;28;910;-67
2022/03/15 00:30:41;;;;;;;368.73;103.53;;;;;;;2.84;62.77;101615.19;341550;28;819;-67
2022/03/15 00:30:52;;;;;;;370.48;103.57;;;;;;;2.83;63.23;101616.91;341471;28;1333;-67
2022/03/15 00:31:03;;;;;;;371.42;102.90;;;;;;;2.84;63.09;101618.66;339994;29;782;-68
2022/03/15 00:31:13;;;;;;;370.38;103.05;;;;;;;2.81;62.93;101616.00;341102;28;1905;-67
2022/03/15 00:31:24;;;;;;;369.80;102.10;;;;;;;2.81;63.36;101618.59;342996;28;1961;-67
2022/03/15 00:31:34;;;;;;;368.30;100.93;;;;;;;2.81;63.23;101625.47;342313;28;1534;-67
2022/03/15 00:31:45;;;;;;;367.60;101.83;;;;;;;2.79;63.64;101621.97;341223;28;1286;-67
2022/03/15 00:31:55;;;;;;;369.00;101.73;;;;;;;2.79;63.51;101621.97;339767;28;1506;-67
2022/03/15 00:32:08;;;;;;;370.50;103.38;;;;;;;2.76;63.96;101617.59;342446;28;1056;-67
2022/03/15 00:32:19;;;;;;;370.33;101.63;;;;;;;2.76;62.97;101622.78;340771;28;2031;-67
2022/03/15 00:32:30;;;;;;;371.08;103.25;;;;;;;2.76;63.41;101616.72;341212;28;917;-67
2022/03/15 00:32:41;;;;;;;371.33;103.25;;;;;;;2.75;63.82;101626.19;341365;28;1395;-67
2022/03/15 00:32:52;;;;;;;369.90;100.28;;;;;;;2.74;63.14;101616.69;341099;28;1813;-67
2022/03/15 00:33:02;;;;;;;368.88;101.90;;;;;;;2.77;63.56;101626.25;343904;28;826;-66
2022/03/15 00:33:13;;;;;;;369.37;102.50;;;;;;;2.77;63.62;101627.13;343953;28;1239;-66
2022/03/15 00:33:25;;;;;;;368.60;103.30;;;;;;;2.78;63.49;101621.09;342096;28;1932;-66
2022/03/15 00:33:37;;;;;;;366.05;102.93;;;;;;;2.78;63.60;101621.09;341784;28;1610;-66
2022/03/15 00:33:48;;;;;;;366.70;102.43;;;;;;;2.80;63.73;101624.59;339875;29;950;-67
2022/03/15 00:33:58;;;;;;;368.77;102.38;;;;;;;2.80;63.72;101621.13;339837;28;1789;-67
2022/03/15 00:34:08;;;;;;;367.97;100.73;;;;;;;2.78;63.49;101621.09;343827;28;860;-67
2022/03/15 00:34:19;;;;;;;367.80;101.65;;;;;;;2.78;63.48;101621.09;343671;28;1391;-68
2022/03/15 00:34:29;;;;;;;366.57;100.77;;;;;;;2.77;63.64;101621.94;342600;28;1203;-67
2022/03/15 00:34:40;;;;;;;367.40;101.30;;;;;;;2.78;63.74;101621.09;342191;28;960;-67
2022/03/15 00:34:50;;;;;;;368.83;102.27;;;;;;;2.78;64.10;101626.28;338200;28;1571;-67
2022/03/15 00:35:01;;;;;;;368.15;101.68;;;;;;;2.79;63.81;101621.97;337905;29;830;-67
2022/03/15 00:35:14;;;;;;;367.35;101.43;;;;;;;2.79;63.77;101628.03;338896;28;1201;-67
2022/03/15 00:35:25;;;;;;;370.08;100.95;;;;;;;2.81;63.32;101625.47;339898;29;954;-67
2022/03/15 00:35:35;;;;;;;371.17;101.13;;;;;;;2.78;63.38;101622.81;340075;29;874;-67
2022/03/15 00:35:47;;;;;;;369.67;101.43;;;;;;;2.78;63.26;101618.50;339932;29;941;-68
2022/03/15 00:35:59;;;;;;;369.55;101.88;;;;;;;2.79;63.60;101616.81;340876;28;1319;-67
2022/03/15 00:36:09;;;;;;;369.08;101.28;;;;;;;2.78;63.57;101625.41;343971;28;2247;-67
2022/03/15 00:36:20;;;;;;;368.80;101.80;;;;;;;2.76;63.75;101627.94;345168;28;794;-67
2022/03/15 00:36:34;;;;;;;369.37;100.43;;;;;;;2.77;63.50;101621.06;342651;28;1448;-68
2022/03/15 00:36:45;;;;;;;368.70;100.78;;;;;;;2.78;64.06;101621.09;342623;28;870;-68
2022/03/15 00:36:56;;;;;;;369.02;100.75;;;;;;;2.76;63.27;101625.38;342440;28;857;-67
2022/03/15 00:37:06;;;;;;;368.60;102.83;;;;;;;2.79;63.56;101622.84;342381;28;1204;-67
2022/03/15 00:37:17;;;;;;;369.20;103.63;;;;;;;2.78;63.48;101621.09;339791;29;1335;-67
2022/03/15 00:37:27;;;;;;;368.33;104.55;;;;;;;2.79;63.57;101617.69;338494;29;1626;-68
2022/03/15 00:37:38;;;;;;;366.73;103.27;;;;;;;2.78;63.91;101615.94;340940;28;1199;-68
2022/03/15 00:37:51;;;;;;;366.60;100.97;;;;;;;2.77;63.85;101619.34;341040;28;1583;-69
2022/03/15 00:38:01;;;;;;;369.77;102.18;;;;;;;2.78;64.21;101621.09;343849;28;951;-69
2022/03/15 00:38:12;;;;;;;372.77;102.13;;;;;;;2.79;63.83;101616.81;341763;28;2226;-68
2022/03/15 00:38:22;;;;;;;369.50;100.97;;;;;;;2.79;63.16;101617.69;342075;28;1659;-68
2022/03/15 00:38:33;;;;;;;373.00;102.18;;;;;;;2.79;63.90;101621.97;340747;28;1241;-68
2022/03/15 00:38:43;;;;;;;373.70;104.33;;;;;;;2.77;64.13;101618.47;341933;28;1198;-69
2022/03/15 00:38:53;;;;;;;374.33;104.97;;;;;;;2.78;63.67;101618.50;342627;28;1188;-69
2022/03/15 00:39:04;;;;;;;372.37;103.27;;;;;;;2.78;63.30;101615.06;340915;28;1708;-69
2022/03/15 00:39:16;;;;;;;371.50;102.90;;;;;;;2.79;63.68;101621.97;341215;28;939;-69
2022/03/15 00:39:27;;;;;;;370.50;100.63;;;;;;;2.79;63.67;101615.09;340794;28;1344;-69
2022/03/15 00:39:37;;;;;;;369.02;99.05;;;;;;;2.80;63.42;101618.56;340738;28;802;-69
2022/03/15 00:39:49;;;;;;;371.30;100.40;;;;;;;2.80;63.96;101614.25;338863;28;1625;-69
2022/03/15 00:39:59;;;;;;;372.65;103.43;;;;;;;2.78;63.21;101625.41;339251;28;889;-68
2022/03/15 00:40:10;;;;;;;372.00;106.67;;;;;;;2.78;63.24;101615.06;340017;28;852;-69
2022/03/15 00:40:22;;;;;;;370.70;105.90;;;;;;;2.79;63.45;101615.09;340683;28;1101;-69
2022/03/15 00:40:32;;;;;;;369.50;103.35;;;;;;;2.79;63.73;101617.69;337137;29;1411;-69
2022/03/15 00:40:43;;;;;;;371.15;101.82;;;;;;;2.79;63.63;101619.38;341176;28;1272;-69
2022/03/15 00:40:53;;;;;;;370.43;101.83;;;;;;;2.79;63.98;101617.69;342481;28;855;-69
2022/03/15 00:41:04;;;;;;;369.77;102.20;;;;;;;2.77;63.20;101614.19;341354;28;1994;-69
2022/03/15 00:41:14;;;;;;;367.70;100.95;;;;;;;2.78;63.72;101620.22;339905;29;1095;-69
2022/03/15 00:41:25;;;;;;;367.80;101.90;;;;;;;2.79;63.70;101612.50;338403;28;1984;-69
2022/03/15 00:41:35;;;;;;;368.17;101.70;;;;;;;2.79;63.72;101615.09;341190;28;892;-69
2022/03/15 00:41:46;;;;;;;368.53;103.07;;;;;;;2.79;63.49;101612.50;342584;28;830;-69
2022/03/15 00:41:56;;;;;;;368.65;104.03;;;;;;;2.81;63.57;101615.13;343747;28;1226;-68
2022/03/15 00:42:07;;;;;;;367.77;103.57;;;;;;;2.82;63.53;101615.16;342495;28;874;-69
2022/03/15 00:42:18;;;;;;;366.08;100.85;;;;;;;2.82;63.17;101617.75;341029;28;1089;-69
2022/03/15 00:42:28;;;;;;;365.48;97.53;;;;;;;2.81;63.17;101615.13;344050;28;853;-69
2022/03/15 00:42:39;;;;;;;364.97;97.30;;;;;;;2.82;63.39;101617.75;343654;28;1333;-69
2022/03/15 00:42:52;;;;;;;366.77;100.97;;;;;;;2.82;63.54;101622.91;342442;28;1656;-69
2022/03/15 00:43:02;;;;;;;368.77;102.32;;;;;;;2.82;63.92;101612.56;339225;29;1749;-69
2022/03/15 00:43:13;;;;;;;370.63;102.32;;;;;;;2.81;63.64;101622.88;341255;28;1437;-69
2022/03/15 00:43:23;;;;;;;368.43;99.87;;;;;;;2.80;63.23;101623.72;339846;29;1490;-68
2022/03/15 00:43:33;;;;;;;369.38;101.60;;;;;;;2.78;63.86;101613.34;340517;28;814;-68
2022/03/15 00:43:44;;;;;;;370.23;102.73;;;;;;;2.78;63.07;101615.94;341040;28;1348;-68
2022/03/15 00:43:54;;;;;;;371.92;104.50;;;;;;;2.78;63.58;101615.94;340116;29;865;-68
2022/03/15 00:44:05;;;;;;;369.13;103.10;;;;;;;2.79;63.10;101614.22;343687;28;1144;-68
2022/03/15 00:44:15;;;;;;;367.52;101.03;;;;;;;2.80;62.96;101618.56;343924;28;1431;-69
2022/03/15 00:44:25;;;;;;;367.07;100.87;;;;;;;2.80;63.66;101622.00;343177;28;1805;-69
2022/03/15 00:44:36;;;;;;;367.02;101.15;;;;;;;2.81;63.34;101618.59;342568;28;1372;-70
2022/03/15 00:44:46;;;;;;;365.77;101.63;;;;;;;2.81;62.96;101621.16;337077;28;1198;-68
2022/03/15 00:45:01;;;;;;;364.77;102.00;;;;;;;2.80;62.84;101619.44;336558;29;1263;-68
2022/03/15 00:45:12;;;;;;;368.38;102.60;;;;;;;2.77;63.11;101619.34;342727;28;1447;-68
2022/03/15 00:45:23;;;;;;;367.63;100.43;;;;;;;2.78;63.30;101621.09;343743;28;1310;-68
2022/03/15 00:45:34;;;;;;;366.90;99.57;;;;;;;2.79;63.60;101622.84;342203;28;936;-68
2022/03/15 00:45:44;;;;;;;364.42;100.28;;;;;;;2.80;63.00;101624.59;342832;28;2228;-68
2022/03/15 00:45:55;;;;;;;366.60;102.57;;;;;;;2.80;63.54;101616.84;343975;28;861;-68
2022/03/15 00:46:05;;;;;;;367.73;103.03;;;;;;;2.81;63.73;101618.59;343323;28;1037;-68
2022/03/15 00:46:15;;;;;;;368.00;102.43;;;;;;;2.81;62.77;101621.16;342222;28;1180;-69
2022/03/15 00:46:26;;;;;;;367.08;101.50;;;;;;;2.81;63.50;101616.00;341019;28;1353;-69
2022/03/15 00:46:36;;;;;;;366.77;100.07;;;;;;;2.77;62.77;101614.19;341152;28;886;-67
2022/03/15 00:46:47;;;;;;;366.20;99.22;;;;;;;2.79;62.84;101622.84;341128;28;886;-68
2022/03/15 00:46:57;;;;;;;366.33;100.60;;;;;;;2.74;62.79;101614.13;344008;28;1201;-69
2022/03/15 00:47:08;;;;;;;365.88;100.63;;;;;;;2.72;63.46;101614.91;342401;28;979;-69
2022/03/15 00:47:19;;;;;;;368.20;100.20;;;;;;;2.71;63.06;101619.22;342045;28;1528;-69
2022/03/15 00:47:29;;;;;;;368.50;101.17;;;;;;;2.71;63.34;101614.03;341136;28;1860;-69
2022/03/15 00:47:40;;;;;;;369.10;102.10;;;;;;;2.70;63.57;101617.47;342490;28;803;-68
2022/03/15 00:47:54;;;;;;;368.05;101.18;;;;;;;2.70;63.28;101622.63;341075;28;2125;-68
2022/03/15 00:48:04;;;;;;;367.40;98.28;;;;;;;2.70;63.42;101620.03;342402;28;1844;-69
2022/03/15 00:48:15;;;;;;;366.43;98.20;;;;;;;2.68;63.51;101620.00;341212;28;1119;-69
2022/03/15 00:48:25;;;;;;;367.73;99.07;;;;;;;2.67;63.32;101619.97;338340;29;1678;-69
2022/03/15 00:48:35;;;;;;;367.90;100.30;;;;;;;2.67;63.75;101619.97;341196;28;1271;-69
2022/03/15 00:48:46;;;;;;;367.58;101.57;;;;;;;2.66;63.63;101616.50;343871;28;1350;-70
2022/03/15 00:48:56;;;;;;;364.13;101.00;;;;;;;2.68;63.86;101619.13;343579;28;824;-68
2022/03/15 00:49:07;;;;;;;364.40;100.53;;;;;;;2.70;63.53;101614.00;341288;28;982;-69
2022/03/15 00:49:17;;;;;;;364.23;101.00;;;;;;;2.68;63.31;101617.44;341200;28;853;-68
2022/03/15 00:49:28;;;;;;;365.88;101.60;;;;;;;2.69;63.05;101620.88;342119;28;1233;-68
2022/03/15 00:49:38;;;;;;;365.38;101.13;;;;;;;2.70;63.76;101621.75;341065;28;1372;-68
2022/03/15 00:49:49;;;;;;;367.10;101.70;;;;;;;2.69;63.25;101620.88;337623;29;1663;-70
2022/03/15 00:50:00;;;;;;;369.35;103.63;;;;;;;2.67;63.85;101617.38;337441;29;1005;-69
2022/03/15 00:50:10;;;;;;;367.58;103.53;;;;;;;2.67;63.43;101617.38;337947;29;2062;-69
2022/03/15 00:50:21;;;;;;;366.90;102.47;;;;;;;2.68;63.96;101619.13;342543;28;821;-68